Time;durP1;ratioP1;P1;durP2;ratioP2;P2;SDS_P1;SDS_P2;PMS_P1;PMS_P2;Temp;Humidity;BMP_temperature;BMP_pressure;BME280_temperature;BME280_humidity;BME280_pressure;Samples;Min_cycle;Max_cycle;Signal;HPM_P1;HPM_P2
2023/04/04 00:00:00;;;;;;;31.95;20.75;;;;;;;15.80;41.87;93850.28;4956272;28;20038;-90
2023/04/04 00:02:25;;;;;;;26.48;18.95;;;;;;;15.80;41.96;93839.38;4972070;28;20486;-93
2023/04/04 00:04:51;;;;;;;31.48;19.73;;;;;;;15.85;41.46;93844.13;4971842;28;20109;-91
2023/04/04 00:07:17;;;;;;;30.35;19.88;;;;;;;15.84;41.60;93837.91;4971535;28;20486;-92
2023/04/04 00:09:42;;;;;;;30.15;19.98;;;;;;;15.84;41.50;93842.63;4972333;28;20482;-92
2023/04/04 00:12:07;;;;;;;30.25;20.15;;;;;;;15.86;41.75;93830.00;4971229;28;20046;-90
2023/04/04 00:14:33;;;;;;;29.20;19.42;;;;;;;15.83;41.77;93830.22;4971817;28;20252;-90
2023/04/04 00:16:58;;;;;;;29.80;19.05;;;;;;;15.84;41.50;93834.44;4971864;28;20397;-92
2023/04/04 00:19:24;;;;;;;32.03;19.63;;;;;;;15.91;41.72;93823.84;4978234;28;20053;-92
2023/04/04 00:21:51;;;;;;;28.25;18.67;;;;;;;15.87;41.44;93825.28;4971394;28;20035;-92
2023/04/04 00:24:16;;;;;;;28.15;18.40;;;;;;;15.86;41.50;93823.81;4971417;28;20042;-92
2023/04/04 00:26:41;;;;;;;26.42;18.80;;;;;;;15.81;41.86;93816.31;4972138;28;20038;-92
2023/04/04 00:29:07;;;;;;;30.85;19.30;;;;;;;15.78;41.67;93818.06;4966952;28;20061;-89
2023/04/04 00:31:32;;;;;;;33.33;19.00;;;;;;;15.77;41.90;93811.13;4991546;28;20035;-92
2023/04/04 00:33:58;;;;;;;26.50;18.42;;;;;;;15.81;41.47;93819.03;4975423;28;20394;-92
2023/04/04 00:36:23;;;;;;;25.92;17.63;;;;;;;15.78;41.72;93801.72;4990478;28;20057;-93
2023/04/04 00:38:49;;;;;;;24.70;17.92;;;;;;;15.81;41.46;93808.13;4991726;28;20031;-90
2023/04/04 00:41:15;;;;;;;29.08;18.05;;;;;;;15.80;42.04;93801.97;4977883;28;20529;-89
2023/04/04 00:43:41;;;;;;;26.83;17.13;;;;;;;15.77;42.09;93803.69;4955603;28;20585;-91
2023/04/04 00:46:07;;;;;;;27.25;17.80;;;;;;;15.78;41.76;93796.25;4974085;28;20051;-91
2023/04/04 00:48:32;;;;;;;26.98;16.77;;;;;;;15.79;41.81;93800.47;4991136;28;20041;-89
2023/04/04 00:50:57;;;;;;;26.98;17.23;;;;;;;15.79;41.42;93808.66;4991047;28;20034;-89
2023/04/04 00:53:23;;;;;;;26.48;18.45;;;;;;;15.80;41.69;93803.94;5001673;28;20493;-93
2023/04/04 00:55:49;;;;;;;25.40;16.13;;;;;;;15.80;41.86;93801.97;4977387;28;20034;-90
2023/04/04 00:58:15;;;;;;;29.20;17.98;;;;;;;15.81;41.95;93803.44;4990058;28;20106;-93
2023/04/04 01:00:40;;;;;;;23.60;16.42;;;;;;;15.79;41.55;93802.44;4974351;28;20057;-92
2023/04/04 01:03:06;;;;;;;28.08;17.67;;;;;;;15.79;41.85;93795.03;4990152;28;20493;-93
2023/04/04 01:05:31;;;;;;;25.17;16.50;;;;;;;15.79;41.73;93792.28;4990167;28;20564;-94
2023/04/04 01:07:57;;;;;;;26.77;17.40;;;;;;;15.75;42.00;93783.59;4990988;28;20038;-93
2023/04/04 01:10:22;;;;;;;21.85;15.15;;;;;;;15.77;41.41;93787.31;4974623;28;20271;-92
2023/04/04 01:12:48;;;;;;;21.70;15.60;;;;;;;15.82;41.58;93782.38;4974838;28;20097;-92
2023/04/04 01:15:13;;;;;;;27.48;16.35;;;;;;;15.75;41.98;93787.06;4989710;28;20054;-91
2023/04/04 01:17:39;;;;;;;28.05;16.77;;;;;;;15.81;41.40;93781.63;4999817;28;20045;-93
2023/04/04 01:20:06;;;;;;;26.50;17.10;;;;;;;15.82;41.39;93783.13;4989983;28;20043;-92
2023/04/04 01:22:32;;;;;;;22.20;15.75;;;;;;;15.86;41.57;93780.19;4974279;28;20051;-93
2023/04/04 01:24:58;;;;;;;27.15;16.55;;;;;;;15.79;41.59;93778.66;4989922;28;20054;-93
2023/04/04 01:27:24;;;;;;;20.92;15.40;;;;;;;15.84;41.83;93779.91;4989337;28;20468;-93
2023/04/04 01:29:49;;;;;;;24.30;15.52;;;;;;;15.81;41.67;93773.44;4990556;28;20038;-93
2023/04/04 01:32:18;;;;;;;21.77;14.77;;;;;;;15.81;41.77;93776.19;4989585;28;20038;-91
2023/04/04 01:35:05;;;;;;;22.35;15.35;;;;;;;15.87;41.41;93782.44;4990270;28;20129;-90
2023/04/04 01:37:36;;;;;;;21.77;15.93;;;;;;;15.83;41.80;93781.16;4985814;28;20038;-92
2023/04/04 01:40:17;;;;;;;24.25;15.70;;;;;;;15.77;41.68;93783.84;4988103;28;20088;-93
2023/04/04 01:42:43;;;;;;;21.52;15.85;;;;;;;15.76;41.69;93772.19;4954647;28;20608;-93
2023/04/04 01:45:11;;;;;;;22.85;15.75;;;;;;;15.79;41.93;93772.47;4977921;28;20050;-91
2023/04/04 01:47:38;;;;;;;23.63;15.80;;;;;;;15.79;41.82;93773.22;4973619;28;20038;-90
2023/04/04 01:50:04;;;;;;;22.98;15.20;;;;;;;15.75;42.04;93780.84;4990071;28;20496;-94
2023/04/04 01:52:30;;;;;;;23.77;15.63;;;;;;;15.74;42.03;93769.22;4999289;28;20042;-91
2023/04/04 01:54:56;;;;;;;21.33;14.82;;;;;;;15.72;41.58;93771.66;4989905;28;20057;-92
2023/04/04 01:57:21;;;;;;;22.98;14.50;;;;;;;15.74;41.70;93761.03;4988305;28;20105;-90
2023/04/04 01:59:46;;;;;;;19.60;13.88;;;;;;;15.75;41.95;93775.41;4973677;28;20448;-92
2023/04/04 02:02:12;;;;;;;22.38;15.32;;;;;;;15.77;41.87;93767.50;4973128;28;20073;-93
2023/04/04 02:04:37;;;;;;;22.88;14.35;;;;;;;15.75;41.95;93778.13;4989610;28;20045;-91
2023/04/04 02:07:03;;;;;;;21.08;14.25;;;;;;;15.75;41.95;93765.25;4988972;28;20042;-92
2023/04/04 02:09:29;;;;;;;25.33;15.07;;;;;;;15.76;42.16;93774.19;4989206;28;20434;-90
2023/04/04 02:11:54;;;;;;;21.45;13.77;;;;;;;15.76;42.00;93764.03;4989172;28;20069;-92
2023/04/04 02:14:20;;;;;;;19.73;14.90;;;;;;;15.79;42.01;93764.28;4988818;28;20046;-88
2023/04/04 02:16:45;;;;;;;19.27;13.63;;;;;;;15.72;42.05;93770.91;4989690;28;20049;-93
2023/04/04 02:19:11;;;;;;;20.83;14.20;;;;;;;15.74;41.76;93776.63;4999682;28;20053;-92
2023/04/04 02:21:37;;;;;;;22.38;13.50;;;;;;;15.81;41.87;93762.56;4989054;28;20429;-90
2023/04/04 02:24:02;;;;;;;21.13;14.20;;;;;;;15.80;41.73;93771.25;4989025;28;20042;-92
2023/04/04 02:26:28;;;;;;;21.25;13.90;;;;;;;15.77;41.99;93764.78;4985406;28;20050;-92
2023/04/04 02:28:53;;;;;;;16.27;12.23;;;;;;;15.75;42.11;93759.81;4998256;28;20041;-93
2023/04/04 02:31:21;;;;;;;20.48;12.88;;;;;;;15.72;41.80;93765.47;4976751;28;20057;-91
2023/04/04 02:33:47;;;;;;;18.77;13.05;;;;;;;15.75;42.24;93756.34;4989369;28;20042;-91
2023/04/04 02:36:12;;;;;;;19.83;13.57;;;;;;;15.78;41.72;93763.53;4988519;28;20558;-93
2023/04/04 02:38:38;;;;;;;19.60;13.13;;;;;;;15.74;41.75;93755.59;4989438;28;20687;-91
2023/04/04 02:41:03;;;;;;;18.92;12.40;;;;;;;15.73;41.79;93756.81;4988597;28;20038;-93
2023/04/04 02:43:28;;;;;;;17.58;12.90;;;;;;;15.74;41.61;93763.00;4972620;28;20042;-90
2023/04/04 02:45:54;;;;;;;21.92;12.63;;;;;;;15.74;41.94;93752.09;4971835;28;20034;-91
2023/04/04 02:48:19;;;;;;;18.58;13.02;;;;;;;15.77;41.50;93751.16;4969412;28;20041;-93
2023/04/04 02:50:46;;;;;;;21.33;12.95;;;;;;;15.73;41.83;93759.53;4971577;28;20046;-89
2023/04/04 02:53:11;;;;;;;20.33;12.75;;;;;;;15.75;41.64;93762.53;4988236;28;20490;-93
2023/04/04 02:55:37;;;;;;;22.83;13.57;;;;;;;15.75;41.92;93759.06;4988568;28;20129;-92
2023/04/04 02:58:02;;;;;;;18.05;12.95;;;;;;;15.73;41.92;93754.09;4966199;28;20501;-91
2023/04/04 03:00:27;;;;;;;16.73;11.60;;;;;;;15.74;41.95;93760.28;4971698;28;20100;-92
2023/04/04 03:02:54;;;;;;;16.77;12.13;;;;;;;15.76;41.66;93760.56;4988763;28;20046;-94
2023/04/04 03:05:19;;;;;;;19.48;13.05;;;;;;;15.84;41.51;93756.13;4989705;28;20050;-91
2023/04/04 03:07:45;;;;;;;16.60;11.98;;;;;;;15.78;41.41;93755.38;4990801;28;20418;-92
2023/04/04 03:10:10;;;;;;;18.83;11.80;;;;;;;15.79;41.71;93756.13;4991034;28;20062;-91
2023/04/04 03:12:36;;;;;;;16.67;11.73;;;;;;;15.77;41.38;93757.34;4990912;28;20563;-93
2023/04/04 03:15:02;;;;;;;18.00;12.15;;;;;;;15.76;41.60;93744.94;4990933;28;20038;-93
2023/04/04 03:17:28;;;;;;;19.52;12.23;;;;;;;15.71;41.76;93742.91;4990544;28;20050;-92
2023/04/04 03:19:53;;;;;;;16.35;11.68;;;;;;;15.82;41.60;93757.84;4991126;28;20038;-89
2023/04/04 03:22:18;;;;;;;16.55;11.60;;;;;;;15.78;41.82;93749.91;4971660;28;20035;-92
2023/04/04 03:24:44;;;;;;;16.90;11.95;;;;;;;15.76;41.58;93755.09;4971699;28;20031;-93
2023/04/04 03:27:10;;;;;;;16.05;11.13;;;;;;;15.83;41.32;93740.25;4971402;28;20050;-91
2023/04/04 03:29:35;;;;;;;16.90;11.30;;;;;;;15.79;41.54;93750.66;4972686;28;20481;-92
2023/04/04 03:32:01;;;;;;;14.57;10.82;;;;;;;15.70;41.59;93755.06;4987491;28;20042;-92
2023/04/04 03:34:26;;;;;;;19.80;11.40;;;;;;;15.73;41.95;93756.81;4971784;28;20119;-94
2023/04/04 03:36:52;;;;;;;18.13;11.32;;;;;;;15.80;41.75;93746.69;4971995;28;20042;-90
2023/04/04 03:39:18;;;;;;;17.85;11.23;;;;;;;15.76;41.57;93741.47;4973059;28;20121;-90
2023/04/04 03:41:43;;;;;;;18.48;11.95;;;;;;;15.72;41.88;93749.88;4992774;28;20041;-93
2023/04/04 03:44:09;;;;;;;19.23;9.63;;;;;;;15.86;40.74;93753.66;4971642;28;20049;-90
2023/04/04 03:46:34;;;;;;;26.40;17.65;;;;;;;15.92;41.05;93757.19;4965604;28;20045;-92
2023/04/04 03:49:00;;;;;;;18.17;11.63;;;;;;;15.82;41.14;93741.50;4972056;28;20030;-92
2023/04/04 03:51:26;;;;;;;50.00;27.55;;;;;;;15.74;41.41;93749.38;4966227;28;20066;-89
2023/04/04 03:53:51;;;;;;;20.90;14.20;;;;;;;15.74;41.85;93755.59;4950311;28;20050;-89
2023/04/04 03:56:17;;;;;;;107.72;48.22;;;;;;;15.62;38.96;93756.72;4918759;28;20064;-89
2023/04/04 03:58:43;;;;;;;32.25;13.63;;;;;;;15.52;37.14;93743.75;4917949;28;20498;-89
2023/04/04 04:01:09;;;;;;;36.80;14.32;;;;;;;15.55;38.06;93743.53;4933485;28;20546;-89
2023/04/04 04:03:34;;;;;;;29.90;13.93;;;;;;;15.57;37.63;93752.00;4933972;28;20054;-90
2023/04/04 04:05:59;;;;;;;27.98;13.63;;;;;;;15.55;39.36;93756.41;4941718;28;20517;-89
2023/04/04 04:08:25;;;;;;;28.20;13.48;;;;;;;15.59;39.82;93752.22;4933339;28;20201;-89
2023/04/04 04:10:50;;;;;;;23.10;15.00;;;;;;;15.61;40.65;93752.50;4934135;28;20042;-90
2023/04/04 04:13:16;;;;;;;25.63;15.88;;;;;;;15.68;40.83;93743.88;4933119;28;20474;-89
2023/04/04 04:15:41;;;;;;;24.10;14.70;;;;;;;15.62;40.95;93745.06;4933287;28;20046;-89
2023/04/04 04:18:07;;;;;;;27.40;15.57;;;;;;;15.65;40.99;93741.38;4949614;28;20053;-89
2023/04/04 04:20:32;;;;;;;31.30;14.82;;;;;;;15.60;40.88;93751.00;4966121;28;20038;-89
2023/04/04 04:22:57;;;;;;;34.28;17.00;;;;;;;15.63;39.74;93746.56;4948781;28;20054;-89
2023/04/04 04:25:23;;;;;;;19.13;13.02;;;;;;;15.55;39.36;93740.06;4986146;28;20034;-90
2023/04/04 04:27:48;;;;;;;21.50;13.10;;;;;;;15.60;39.50;93742.06;4987580;28;20418;-90
2023/04/04 04:30:14;;;;;;;26.67;14.13;;;;;;;15.70;40.29;93754.31;4987469;28;20050;-89
2023/04/04 04:32:39;;;;;;;22.50;14.15;;;;;;;15.66;40.09;93742.88;4987159;28;20038;-91
2023/04/04 04:35:06;;;;;;;25.35;14.65;;;;;;;15.65;40.45;93744.84;4968326;28;20053;-91
2023/04/04 04:37:31;;;;;;;21.98;13.77;;;;;;;15.69;40.17;93759.00;4971177;28;20039;-90
2023/04/04 04:39:57;;;;;;;481.67;358.40;;;;;;;15.77;40.81;93756.59;4961404;28;20449;-91
2023/04/04 04:42:24;;;;;;;26.42;14.07;;;;;;;15.72;40.31;93751.84;4972789;28;20057;-89
2023/04/04 04:44:50;;;;;;;23.30;14.25;;;;;;;15.87;40.33;93748.97;4980441;28;20052;-90
2023/04/04 04:47:15;;;;;;;31.20;15.32;;;;;;;15.74;40.73;93757.56;4963925;28;21900;-89
2023/04/04 04:49:43;;;;;;;24.63;14.05;;;;;;;15.86;40.13;93745.50;4988655;28;20042;-89
2023/04/04 04:52:08;;;;;;;24.05;13.55;;;;;;;15.85;40.12;93762.34;4974088;28;20457;-91
2023/04/04 04:54:34;;;;;;;23.65;12.48;;;;;;;15.74;40.17;93760.28;4990485;28;20129;-91
2023/04/04 04:57:00;;;;;;;31.88;13.02;;;;;;;15.67;38.74;93755.28;4963292;28;20035;-92
2023/04/04 04:59:26;;;;;;;31.25;12.95;;;;;;;15.67;39.27;93750.56;4991336;28;20049;-90
2023/04/04 05:01:52;;;;;;;29.10;12.05;;;;;;;15.71;39.56;93753.06;4974422;28;20050;-89
2023/04/04 05:04:18;;;;;;;31.02;11.98;;;;;;;15.72;39.83;93760.03;4978334;28;20050;-88
2023/04/04 05:06:43;;;;;;;28.15;12.05;;;;;;;15.77;39.79;93770.97;4971999;28;20043;-89
2023/04/04 05:09:09;;;;;;;38.03;12.25;;;;;;;15.73;39.10;93765.00;4971618;28;20066;-91
2023/04/04 05:11:34;;;;;;;38.67;9.90;;;;;;;15.62;36.59;93761.41;4976243;28;20035;-89
2023/04/04 05:14:00;;;;;;;62.42;14.55;;;;;;;15.61;37.03;93763.41;4974997;28;20035;-91
2023/04/04 05:16:26;;;;;;;47.53;12.45;;;;;;;15.65;36.93;93765.91;4988647;28;20520;-89
2023/04/04 05:18:51;;;;;;;44.58;13.10;;;;;;;15.75;37.56;93761.78;4984423;28;20054;-90
2023/04/04 05:21:18;;;;;;;42.53;9.35;;;;;;;15.33;33.68;93768.59;4978951;28;20127;-90
2023/04/04 05:23:44;;;;;;;43.05;7.78;;;;;;;15.09;32.63;93762.69;4986735;28;20046;-89
2023/04/04 05:26:09;;;;;;;48.88;9.15;;;;;;;15.14;32.63;93769.41;4954656;28;20138;-89
2023/04/04 05:28:35;;;;;;;31.55;8.85;;;;;;;15.32;34.03;93766.34;4983867;28;20050;-90
2023/04/04 05:31:02;;;;;;;42.92;11.13;;;;;;;15.40;33.29;93767.41;4969950;28;20050;-91
2023/04/04 05:33:28;;;;;;;42.15;10.63;;;;;;;15.37;33.86;93765.66;4983440;28;20057;-90
2023/04/04 05:35:53;;;;;;;37.70;11.32;;;;;;;15.43;34.73;93769.91;4991082;28;20338;-90
2023/04/04 05:38:20;;;;;;;43.08;12.43;;;;;;;15.59;35.26;93770.59;4991117;28;20406;-88
2023/04/04 05:40:45;;;;;;;38.38;12.30;;;;;;;15.64;35.94;93764.41;4951493;28;20047;-88
2023/04/04 05:43:11;;;;;;;36.45;12.27;;;;;;;15.54;37.18;93766.56;4919157;29;20054;-89
2023/04/04 05:45:36;;;;;;;31.10;12.55;;;;;;;15.65;37.27;93766.66;4903157;29;20047;-90
2023/04/04 05:48:02;;;;;;;38.88;12.00;;;;;;;15.74;37.52;93769.22;4945800;28;20550;-91
2023/04/04 05:50:30;;;;;;;34.13;11.00;;;;;;;15.68;37.60;93773.88;4934193;28;20050;-91
2023/04/04 05:52:56;;;;;;;40.22;11.05;;;;;;;15.76;38.05;93774.19;4933697;29;20058;-90
2023/04/04 05:55:21;;;;;;;41.05;12.52;;;;;;;15.64;38.12;93765.16;4949437;28;20046;-92
2023/04/04 05:57:49;;;;;;;45.15;12.50;;;;;;;15.77;37.81;93775.69;4934434;29;20050;-90
2023/04/04 06:00:16;;;;;;;46.65;13.13;;;;;;;15.70;37.95;93776.09;4945988;29;20040;-90
2023/04/04 06:02:42;;;;;;;57.95;15.93;;;;;;;15.74;38.00;93782.09;4927600;29;20049;-90
2023/04/04 06:05:08;;;;;;;41.50;14.82;;;;;;;15.70;37.94;93776.84;4945607;28;20079;-91
2023/04/04 06:07:34;;;;;;;45.10;14.55;;;;;;;15.79;37.93;93792.28;4927229;29;20047;-92
2023/04/04 06:10:00;;;;;;;34.22;12.60;;;;;;;15.79;37.54;93780.66;4933743;29;20051;-90
2023/04/04 06:12:26;;;;;;;40.55;12.50;;;;;;;15.76;38.09;93782.34;4963053;28;20344;-90
2023/04/04 06:14:51;;;;;;;33.38;13.30;;;;;;;15.70;38.03;93776.84;4968889;28;20027;-90
2023/04/04 06:17:17;;;;;;;42.90;16.67;;;;;;;15.68;38.30;93782.03;4978046;28;20042;-89
2023/04/04 06:19:42;;;;;;;42.25;17.88;;;;;;;15.85;37.95;93775.97;5003999;28;20065;-88
2023/04/04 06:22:08;;;;;;;48.55;17.05;;;;;;;15.83;37.95;93778.41;4973750;28;20456;-88
2023/04/04 06:24:34;;;;;;;43.92;17.05;;;;;;;15.79;38.08;93783.38;4972881;28;20045;-88
2023/04/04 06:26:59;;;;;;;44.67;17.40;;;;;;;15.92;38.05;93779.00;4988723;28;20042;-88
2023/04/04 06:29:25;;;;;;;69.82;17.17;;;;;;;15.92;37.93;93781.72;4973336;28;20556;-88
2023/04/04 06:31:50;;;;;;;73.20;19.30;;;;;;;15.88;38.14;93775.00;4972472;28;20043;-88
2023/04/04 06:34:16;;;;;;;55.97;20.00;;;;;;;15.89;38.03;93779.22;4972973;28;20054;-89
2023/04/04 06:36:41;;;;;;;45.95;18.52;;;;;;;15.91;38.11;93782.94;4988512;28;20039;-89
2023/04/04 06:39:06;;;;;;;67.60;20.83;;;;;;;15.87;38.17;93770.78;4989464;28;20043;-89
2023/04/04 06:41:32;;;;;;;61.50;21.65;;;;;;;15.87;38.19;93776.97;4970807;28;20086;-88
2023/04/04 06:43:57;;;;;;;45.75;20.80;;;;;;;15.89;38.17;93776.50;4965243;28;20039;-89
2023/04/04 06:46:24;;;;;;;58.75;21.65;;;;;;;15.92;38.31;93770.81;4993723;28;20042;-90
2023/04/04 06:48:49;;;;;;;55.25;22.10;;;;;;;15.94;38.20;93773.06;4991419;28;20498;-90
2023/04/04 06:51:15;;;;;;;72.00;22.73;;;;;;;15.86;38.57;93772.75;4975744;28;20062;-89
2023/04/04 06:53:40;;;;;;;61.80;21.42;;;;;;;15.94;38.39;93770.34;4971315;28;20046;-88
2023/04/04 06:56:06;;;;;;;62.03;22.55;;;;;;;16.00;38.51;93771.13;4972949;28;20046;-88
2023/04/04 06:58:31;;;;;;;85.93;21.98;;;;;;;15.76;37.18;93772.19;4978589;28;20460;-88
2023/04/04 07:00:58;;;;;;;81.65;20.88;;;;;;;15.67;36.83;93780.53;4987339;28;20035;-88
2023/04/04 07:03:25;;;;;;;105.75;23.05;;;;;;;15.81;36.44;93783.59;4985552;28;20046;-88
2023/04/04 07:05:51;;;;;;;89.75;24.92;;;;;;;15.81;36.85;93775.44;4972050;28;20309;-90
2023/04/04 07:08:16;;;;;;;80.35;24.42;;;;;;;15.86;37.36;93780.94;4974191;28;20054;-88
2023/04/04 07:10:41;;;;;;;77.63;25.85;;;;;;;15.90;37.42;93781.47;4999561;28;20042;-89
2023/04/04 07:13:07;;;;;;;79.63;27.25;;;;;;;15.92;37.65;93773.53;4987484;28;20671;-91
2023/04/04 07:15:32;;;;;;;71.93;26.35;;;;;;;15.93;37.99;93780.50;4976200;28;20034;-90
2023/04/04 07:17:58;;;;;;;75.47;26.48;;;;;;;15.93;38.05;93785.94;4973066;28;20042;-91
2023/04/04 07:20:24;;;;;;;73.72;27.60;;;;;;;15.96;38.09;93781.50;4981411;28;20105;-91
2023/04/04 07:22:50;;;;;;;88.95;28.83;;;;;;;15.99;38.05;93788.72;4986694;28;20070;-91
2023/04/04 07:25:15;;;;;;;88.78;29.08;;;;;;;15.96;38.35;93792.41;4966255;28;20034;-91
2023/04/04 07:27:41;;;;;;;107.95;29.45;;;;;;;16.02;38.26;93785.03;4960770;28;20046;-90
2023/04/04 07:30:07;;;;;;;87.97;28.85;;;;;;;16.07;38.06;93784.28;4968158;28;20048;-88
2023/04/04 07:32:32;;;;;;;89.55;29.13;;;;;;;16.00;38.19;93788.22;4971139;28;20031;-90
2023/04/04 07:34:58;;;;;;;98.00;32.55;;;;;;;15.91;38.44;93779.47;4963072;28;20057;-90
2023/04/04 07:37:25;;;;;;;92.97;32.05;;;;;;;15.99;38.49;93775.84;4968102;28;20038;-90
2023/04/04 07:39:51;;;;;;;111.60;36.10;;;;;;;15.97;38.32;93783.75;4980152;28;20038;-90
2023/04/04 07:42:21;;;;;;;103.18;33.65;;;;;;;16.04;38.34;93782.53;4991568;28;20634;-89
2023/04/04 07:44:48;;;;;;;102.50;33.17;;;;;;;16.08;38.33;93777.59;4991820;28;20030;-90
2023/04/04 07:47:14;;;;;;;96.40;36.30;;;;;;;15.96;38.16;93778.78;4985844;28;20115;-89
2023/04/04 07:49:40;;;;;;;99.15;37.35;;;;;;;15.92;38.75;93779.00;4994267;28;20505;-90
2023/04/04 07:52:06;;;;;;;117.32;37.45;;;;;;;15.94;38.51;93778.50;5004420;28;20125;-90
2023/04/04 07:54:31;;;;;;;107.05;37.17;;;;;;;16.03;38.23;93781.03;4987571;28;20042;-88
2023/04/04 07:56:56;;;;;;;107.35;36.88;;;;;;;16.05;38.22;93776.59;4987661;28;20034;-89
2023/04/04 07:59:22;;;;;;;102.72;37.10;;;;;;;16.08;38.23;93780.34;4987249;28;20053;-89
2023/04/04 08:01:47;;;;;;;99.85;35.85;;;;;;;16.09;38.57;93784.56;4958807;28;20065;-90
2023/04/04 08:04:13;;;;;;;117.57;39.80;;;;;;;16.01;38.55;93778.81;4970944;28;20042;-89
2023/04/04 08:06:38;;;;;;;115.95;36.80;;;;;;;15.97;38.65;93772.09;4970995;28;20043;-89
2023/04/04 08:09:04;;;;;;;142.93;41.50;;;;;;;15.92;38.28;93781.72;4987008;28;20417;-89
2023/04/04 08:11:29;;;;;;;119.75;38.38;;;;;;;16.01;38.25;93778.06;4989712;28;20117;-89
2023/04/04 08:13:55;;;;;;;126.80;40.30;;;;;;;16.03;38.51;93787.25;4965772;28;20074;-90
2023/04/04 08:16:21;;;;;;;108.28;36.05;;;;;;;16.14;38.27;93788.56;4974662;28;20057;-89
2023/04/04 08:18:46;;;;;;;91.95;33.30;;;;;;;16.18;38.59;93789.09;4963614;28;20039;-92
2023/04/04 08:21:12;;;;;;;133.40;39.72;;;;;;;16.04;38.54;93779.81;4965463;28;20045;-91
2023/04/04 08:23:37;;;;;;;126.07;39.67;;;;;;;16.07;38.59;93773.38;4974886;28;20097;-91
2023/04/04 08:26:03;;;;;;;116.82;39.50;;;;;;;15.99;39.03;93773.09;4990667;28;20576;-90
2023/04/04 08:28:28;;;;;;;120.88;38.85;;;;;;;16.11;38.25;93780.09;4990471;28;20042;-90
2023/04/04 08:30:54;;;;;;;114.82;41.17;;;;;;;16.09;38.44;93766.22;4966937;28;20081;-91
2023/04/04 08:33:23;;;;;;;121.60;38.78;;;;;;;16.07;38.84;93765.94;4995038;28;20457;-90
2023/04/04 08:35:49;;;;;;;128.73;39.17;;;;;;;16.10;38.64;93767.72;4976677;28;20064;-91
2023/04/04 08:38:14;;;;;;;117.30;38.08;;;;;;;16.06;38.80;93777.34;4970407;28;20038;-92
2023/04/04 08:40:45;;;;;;;143.13;40.63;;;;;;;16.08;38.82;93775.63;4978420;28;20030;-91
2023/04/04 08:43:11;;;;;;;161.75;44.85;;;;;;;16.08;38.52;93772.91;4960776;28;20049;-90
2023/04/04 08:45:36;;;;;;;168.63;47.08;;;;;;;16.20;38.51;93760.09;4966489;28;20082;-92
2023/04/04 08:48:02;;;;;;;158.93;44.63;;;;;;;16.11;38.82;93769.19;4968409;28;20462;-91
2023/04/04 08:50:31;;;;;;;165.32;48.13;;;;;;;16.14;38.86;93770.22;4976014;28;20046;-91
2023/04/04 08:53:00;;;;;;;152.38;47.35;;;;;;;16.13;38.51;93767.97;4995496;28;20181;-91
2023/04/04 08:55:26;;;;;;;159.38;49.95;;;;;;;16.11;38.89;93763.75;4996442;28;20030;-92
2023/04/04 08:57:52;;;;;;;194.73;46.88;;;;;;;16.07;38.74;93770.66;4980533;28;20037;-92
2023/04/04 09:00:20;;;;;;;166.40;55.00;;;;;;;16.07;39.10;93768.69;4978689;28;20137;-91
2023/04/04 09:02:53;;;;;;;147.60;49.00;;;;;;;16.11;39.07;93766.47;4978055;28;20050;-91
2023/04/04 09:05:18;;;;;;;161.02;50.92;;;;;;;16.14;38.95;93767.47;4993755;28;20049;-92
2023/04/04 09:07:44;;;;;;;144.60;49.50;;;;;;;16.16;38.93;93764.28;4997744;28;20464;-90
2023/04/04 09:10:11;;;;;;;146.48;47.28;;;;;;;16.23;39.06;93750.94;4991934;28;20042;-92
2023/04/04 09:12:37;;;;;;;168.13;53.25;;;;;;;16.22;39.24;93757.63;4960287;28;20045;-92
2023/04/04 09:15:02;;;;;;;140.85;54.28;;;;;;;16.18;39.35;93759.06;4953914;28;20039;-91
2023/04/04 09:17:28;;;;;;;145.77;54.90;;;;;;;16.17;39.08;93755.59;4942930;28;20070;-92
2023/04/04 09:19:55;;;;;;;204.02;71.15;;;;;;;16.08;37.79;93756.53;4987570;28;20749;-92
2023/04/04 09:22:20;;;;;;;148.13;52.10;;;;;;;16.11;37.58;93771.19;4988337;28;20077;-92
2023/04/04 09:24:47;;;;;;;162.35;54.63;;;;;;;16.06;36.98;93752.81;4953156;28;20043;-93
2023/04/04 09:27:14;;;;;;;151.88;55.70;;;;;;;16.13;37.95;93752.34;4951861;28;20050;-94
2023/04/04 09:29:40;;;;;;;188.85;59.05;;;;;;;16.19;38.25;93757.84;4983974;28;20459;-93
2023/04/04 09:32:13;;;;;;;179.98;54.80;;;;;;;16.10;38.21;93761.50;4958919;28;20071;-91
2023/04/04 09:34:38;;;;;;;151.52;54.08;;;;;;;16.08;38.31;93761.25;4960646;28;20049;-93
2023/04/04 09:37:05;;;;;;;176.02;57.40;;;;;;;16.22;38.67;93756.88;4994145;28;20038;-93
2023/04/04 09:39:33;;;;;;;194.90;63.72;;;;;;;16.21;38.79;93758.84;4961561;28;20042;-93
2023/04/04 09:41:58;;;;;;;126.20;52.22;;;;;;;16.16;38.72;93753.34;4976099;28;20463;-92
2023/04/04 09:44:24;;;;;;;148.02;53.65;;;;;;;16.20;38.77;93756.63;4975467;28;20110;-92
2023/04/04 09:46:51;;;;;;;163.25;58.70;;;;;;;16.17;39.05;93758.34;4990010;28;20107;-93
2023/04/04 09:49:22;;;;;;;148.30;63.92;;;;;;;16.23;39.25;93770.03;4948799;28;20046;-93
2023/04/04 09:51:49;;;;;;;164.82;66.28;;;;;;;16.15;39.06;93768.97;4958698;28;20070;-93
2023/04/04 09:54:21;;;;;;;161.88;55.38;;;;;;;16.18;39.15;93776.19;4948886;28;20047;-93
2023/04/04 09:56:48;;;;;;;147.80;60.65;;;;;;;16.21;38.96;93774.47;4943614;29;20043;-94
2023/04/04 09:59:16;;;;;;;160.25;62.20;;;;;;;16.26;38.82;93766.28;4974891;28;20036;-90
2023/04/04 10:01:44;;;;;;;153.18;58.70;;;;;;;16.19;39.18;93774.97;4932521;28;20139;-95
2023/04/04 10:04:09;;;;;;;173.02;60.58;;;;;;;16.24;39.54;93771.50;4946088;28;20054;-93
2023/04/04 10:06:44;;;;;;;165.73;58.00;;;;;;;16.26;39.35;93773.75;4941844;28;20058;-92
2023/04/04 10:09:10;;;;;;;153.93;57.55;;;;;;;16.20;39.25;93770.25;4948097;28;20454;-91
2023/04/04 10:11:37;;;;;;;143.93;58.55;;;;;;;16.17;39.15;93779.41;4974383;28;20046;-92
2023/04/04 10:14:08;;;;;;;142.10;59.90;;;;;;;16.25;39.38;93778.44;4920253;28;20053;-93
2023/04/04 10:16:43;;;;;;;124.70;55.70;;;;;;;16.36;39.43;93777.78;4972335;28;20038;-91
2023/04/04 10:19:08;;;;;;;128.80;52.92;;;;;;;16.26;39.49;93779.94;4959327;28;20050;-93
2023/04/04 10:21:34;;;;;;;167.15;62.08;;;;;;;16.26;40.26;93777.22;4955870;28;20065;-93
2023/04/04 10:24:02;;;;;;;144.95;60.83;;;;;;;16.30;39.79;93777.00;4935824;28;20059;-92
2023/04/04 10:26:27;;;;;;;132.75;61.75;;;;;;;16.32;39.86;93764.34;4951665;28;20782;-93
2023/04/04 10:28:53;;;;;;;142.80;59.53;;;;;;;16.34;39.72;93761.88;4952688;28;20204;-93
2023/04/04 10:31:21;;;;;;;140.93;56.78;;;;;;;16.24;39.76;93768.75;4933764;28;20040;-94
2023/04/04 10:34:18;;;;;;;131.80;59.80;;;;;;;16.30;39.50;93757.88;4940665;28;20047;-94
2023/04/04 10:36:52;;;;;;;122.90;51.45;;;;;;;16.34;39.85;93764.63;4951477;28;20557;-92
2023/04/04 10:39:26;;;;;;;134.70;55.17;;;;;;;16.31;40.10;93764.84;4954738;28;20624;-94
2023/04/04 10:41:51;;;;;;;107.13;51.42;;;;;;;16.29;39.73;93768.06;4955264;28;20050;-95
2023/04/04 10:44:22;;;;;;;91.53;47.53;;;;;;;16.25;39.29;93764.81;4965644;28;20047;-94
2023/04/04 10:46:50;;;;;;;114.47;47.05;;;;;;;16.30;39.62;93766.06;4952154;28;20036;-94
2023/04/04 10:49:16;;;;;;;110.35;44.45;;;;;;;16.24;39.23;93759.88;4977582;28;20104;-94
2023/04/04 10:51:42;;;;;;;92.25;44.17;;;;;;;16.33;39.78;93765.09;4970759;28;20367;-94
2023/04/04 10:54:08;;;;;;;109.65;46.60;;;;;;;16.34;40.22;93761.13;4952748;28;20178;-91
2023/04/04 10:56:34;;;;;;;94.18;43.97;;;;;;;16.40;39.95;93767.38;4970454;28;20038;-93
2023/04/04 10:59:11;;;;;;;89.72;43.50;;;;;;;16.31;40.13;93762.13;4969899;28;20486;-91
2023/04/04 11:01:57;;;;;;;100.45;46.08;;;;;;;16.39;40.14;93755.72;4954254;28;20133;-91
2023/04/04 11:04:30;;;;;;;109.88;42.15;;;;;;;16.27;39.70;93751.44;4959170;28;20173;-92
2023/04/04 11:07:11;;;;;;;103.72;45.95;;;;;;;16.34;40.05;93763.88;4952865;28;20042;-90
2023/04/04 11:09:46;;;;;;;;;;;;;;;16.30;39.88;93764.09;4961539;28;20429;-93